Time;durP1;ratioP1;P1;durP2;ratioP2;P2;SDS_P1;SDS_P2;PMS_P1;PMS_P2;Temp;Humidity;BMP_temperature;BMP_pressure;BME280_temperature;BME280_humidity;BME280_pressure;Samples;Min_cycle;Max_cycle;Signal;HPM_P1;HPM_P2
2022/10/23 00:01:54;;;;;;;6.72;2.85;;;;;;;11.86;nan;100532.38;5092863;28;20075;-67
2022/10/23 00:04:21;;;;;;;5.65;2.75;;;;;;;11.81;nan;100530.19;5074603;28;20516;-67
2022/10/23 00:06:48;;;;;;;4.13;2.55;;;;;;;11.76;nan;100526.38;5098433;28;20050;-67
2022/10/23 00:09:17;;;;;;;3.08;2.13;;;;;;;11.71;nan;100524.19;5076272;28;20028;-67
2022/10/23 00:11:46;;;;;;;4.50;2.33;;;;;;;11.66;nan;100519.38;5076270;28;20056;-67
2022/10/23 00:14:11;;;;;;;4.88;2.10;;;;;;;11.63;nan;100517.06;5088106;28;20551;-67
2022/10/23 00:16:37;;;;;;;4.72;2.05;;;;;;;11.61;nan;100512.91;5080592;28;20060;-67
2022/10/23 00:19:04;;;;;;;2.95;1.90;;;;;;;11.58;nan;100508.72;5066864;28;20131;-67
2022/10/23 00:21:30;;;;;;;3.63;1.95;;;;;;;11.57;nan;100504.44;5065019;28;20028;-67
2022/10/23 00:23:56;;;;;;;3.03;1.90;;;;;;;11.55;nan;100505.59;5090699;28;20355;-67
2022/10/23 00:26:23;;;;;;;4.00;1.60;;;;;;;11.54;nan;100503.94;5078909;28;20701;-67
2022/10/23 00:28:51;;;;;;;3.60;1.70;;;;;;;11.53;nan;100495.13;5085587;28;20039;-67
2022/10/23 00:31:17;;;;;;;2.55;1.67;;;;;;;11.53;nan;100494.31;5086017;28;20032;-67
2022/10/23 00:33:43;;;;;;;3.92;2.08;;;;;;;11.50;nan;100495.47;5085014;28;20051;-67
2022/10/23 00:36:11;;;;;;;4.82;2.53;;;;;;;11.48;nan;100489.50;5078384;28;20056;-67
2022/10/23 00:38:37;;;;;;;3.65;2.13;;;;;;;11.45;nan;100484.53;5087135;28;20496;-67
2022/10/23 00:41:03;;;;;;;4.93;2.78;;;;;;;11.48;nan;100497.44;5087905;28;20374;-67
2022/10/23 00:43:30;;;;;;;5.60;3.10;;;;;;;11.48;nan;100489.50;5087225;28;20040;-67
2022/10/23 00:45:56;;;;;;;3.88;2.40;;;;;;;11.47;nan;100483.38;5078321;28;20024;-67
2022/10/23 00:48:21;;;;;;;4.68;2.70;;;;;;;11.44;nan;100480.19;5076768;28;20028;-67
2022/10/23 00:50:48;;;;;;;4.47;2.53;;;;;;;11.43;nan;100478.56;5070864;28;20036;-67
2022/10/23 00:53:14;;;;;;;3.38;2.20;;;;;;;11.43;nan;100473.25;5086642;28;20329;-67
2022/10/23 00:55:45;;;;;;;3.30;1.92;;;;;;;11.42;nan;100472.44;5088190;28;20043;-67
2022/10/23 00:58:12;;;;;;;3.63;2.03;;;;;;;11.41;nan;100472.59;5086697;28;20477;-67
2022/10/23 01:00:53;;;;;;;5.40;2.70;;;;;;;11.40;nan;100471.75;5087237;28;20047;-67
2022/10/23 01:03:22;;;;;;;3.53;2.45;;;;;;;11.39;nan;100462.16;5082095;28;20116;-67
2022/10/23 01:05:56;;;;;;;5.00;2.80;;;;;;;11.39;nan;100459.53;5071074;28;20114;-67
2022/10/23 01:08:34;;;;;;;7.57;2.40;;;;;;;11.41;nan;100452.22;5085275;28;20032;-67
2022/10/23 01:11:40;;;;;;;4.60;2.30;;;;;;;11.45;nan;100444.81;5081175;28;20091;-67
2022/10/23 01:14:16;;;;;;;4.47;2.22;;;;;;;11.52;nan;100440.53;5038848;28;20107;-68
2022/10/23 01:16:58;;;;;;;3.50;2.25;;;;;;;11.63;nan;100444.69;5075540;28;20055;-67
2022/10/23 01:19:53;;;;;;;2.63;1.73;;;;;;;11.81;nan;100448.06;5081013;28;20535;-67
2022/10/23 01:22:33;;;;;;;4.85;2.40;;;;;;;11.81;nan;100457.84;5091824;28;20040;-67
2022/10/23 01:25:22;;;;;;;4.22;2.80;;;;;;;11.81;nan;100452.53;5081478;28;20044;-67
2022/10/23 01:27:54;;;;;;;3.33;2.20;;;;;;;11.89;nan;100449.94;5083115;28;20406;-67
2022/10/23 01:30:19;;;;;;;4.38;2.50;;;;;;;11.93;nan;100453.09;5082833;28;20430;-67
2022/10/23 01:32:47;;;;;;;;;;;;;;;11.80;nan;100458.84;5086353;28;20059;-67
2022/10/23 01:35:17;;;;;;;;;;;;;;;11.71;nan;100454.50;5080648;28;20198;-67
2022/10/23 01:37:46;;;;;;;4.07;2.33;;;;;;;11.64;nan;100459.63;5077826;28;19946;-67
2022/10/23 01:40:28;;;;;;;3.97;2.30;;;;;;;11.55;nan;100453.44;5073344;28;20086;-67
2022/10/23 01:42:56;;;;;;;;;;;;;;;11.50;nan;100462.88;5083668;28;20040;-67
2022/10/23 01:45:37;;;;;;;4.97;2.60;;;;;;;11.43;nan;100460.03;5081672;28;20011;-67
2022/10/23 01:48:04;;;;;;;;;;;;;;;11.36;nan;100461.66;5086222;28;20077;-68
2022/10/23 01:50:31;;;;;;;4.95;2.90;;;;;;;11.32;nan;100455.00;5084042;28;20023;-67
2022/10/23 01:52:56;;;;;;;6.15;2.70;;;;;;;11.44;nan;100451.06;5072518;28;20405;-67
2022/10/23 01:55:23;;;;;;;2.88;2.00;;;;;;;11.36;nan;100445.75;5083866;28;20046;-67
2022/10/23 01:57:52;;;;;;;2.78;2.03;;;;;;;11.31;nan;100445.41;5087214;28;20484;-67
2022/10/23 02:00:18;;;;;;;3.15;2.35;;;;;;;11.22;nan;100437.41;5066696;28;20477;-67
2022/10/23 02:02:47;;;;;;;3.55;2.53;;;;;;;11.17;nan;100423.00;5087226;28;20028;-67
2022/10/23 02:05:25;;;;;;;4.57;2.33;;;;;;;11.12;nan;100401.47;5076299;28;20194;-67
2022/10/23 02:07:51;;;;;;;3.95;2.08;;;;;;;11.06;nan;100408.25;5076064;28;20063;-67
2022/10/23 02:10:18;;;;;;;5.93;3.50;;;;;;;10.99;nan;100404.56;5067640;28;20070;-68
2022/10/23 02:13:01;;;;;;;7.00;3.60;;;;;;;10.96;nan;100410.16;5082572;28;20567;-67
2022/10/23 02:15:39;;;;;;;5.78;3.10;;;;;;;10.91;nan;100407.97;5068155;28;20082;-67
2022/10/23 02:18:15;;;;;;;4.93;2.90;;;;;;;10.89;nan;100404.66;5082446;28;20044;-67
2022/10/23 02:20:52;;;;;;;5.38;2.50;;;;;;;10.87;nan;100405.81;5083333;28;20515;-67
2022/10/23 02:23:33;;;;;;;3.88;2.30;;;;;;;10.89;nan;100411.78;5093343;28;20071;-67
2022/10/23 02:26:08;;;;;;;2.83;1.80;;;;;;;10.86;nan;100410.28;5086185;28;20036;-67
2022/10/23 02:28:42;;;;;;;6.88;2.40;;;;;;;10.88;nan;100404.84;5078298;28;20448;-67
2022/10/23 02:31:12;;;;;;;5.03;2.70;;;;;;;10.90;nan;100402.88;5072726;28;20608;-67
2022/10/23 02:33:38;;;;;;;;;;;;;;;10.87;nan;100409.31;5084048;28;20181;-67
2022/10/23 02:36:03;;;;;;;3.83;2.28;;;;;;;10.88;nan;100420.72;5079489;28;19987;-67
2022/10/23 02:38:33;;;;;;;3.00;2.00;;;;;;;10.84;nan;100423.69;5075934;28;20401;-67
2022/10/23 02:41:19;;;;;;;4.82;2.20;;;;;;;10.83;nan;100421.19;5080316;28;20096;-67
2022/10/23 02:44:23;;;;;;;6.72;3.13;;;;;;;10.84;nan;100417.53;5084309;28;20062;-67
2022/10/23 02:46:59;;;;;;;4.85;2.30;;;;;;;10.79;nan;100407.41;5057948;28;20575;-67
2022/10/23 02:49:43;;;;;;;4.30;2.60;;;;;;;10.81;nan;100405.44;5079692;28;20039;-67
2022/10/23 02:52:20;;;;;;;4.60;2.60;;;;;;;10.78;nan;100399.66;5077695;28;20209;-68
2022/10/23 02:55:07;;;;;;;5.18;2.63;;;;;;;10.76;nan;100391.88;5081150;28;20076;-67
2022/10/23 02:57:47;;;;;;;3.72;1.90;;;;;;;10.76;nan;100380.47;5081250;28;20044;-67
2022/10/23 03:00:15;;;;;;;4.15;2.15;;;;;;;10.72;nan;100393.16;5082174;28;20063;-67
2022/10/23 03:03:05;;;;;;;3.05;1.77;;;;;;;10.68;nan;100397.13;5082264;28;20393;-67
2022/10/23 03:05:35;;;;;;;3.55;2.35;;;;;;;10.62;nan;100389.78;5078860;28;20432;-67
2022/10/23 03:08:03;;;;;;;4.32;2.60;;;;;;;10.60;nan;100381.19;5077092;28;20374;-67
2022/10/23 03:10:28;;;;;;;4.00;2.10;;;;;;;10.68;nan;100381.25;5083815;28;20395;-67
2022/10/23 03:12:53;;;;;;;3.55;2.17;;;;;;;10.75;nan;100376.16;5064421;28;20477;-67
2022/10/23 03:15:19;;;;;;;5.13;2.27;;;;;;;10.78;nan;100378.50;5075291;28;20769;-67
2022/10/23 03:17:44;;;;;;;4.40;2.13;;;;;;;10.67;nan;100370.81;5078779;28;20385;-67
2022/10/23 03:20:11;;;;;;;4.22;1.90;;;;;;;10.60;nan;100373.25;5079951;28;20056;-68
2022/10/23 03:22:36;;;;;;;3.72;2.17;;;;;;;10.56;nan;100371.94;5083274;28;20488;-67
2022/10/23 03:25:02;;;;;;;3.72;2.30;;;;;;;10.52;nan;100358.19;5085035;28;20123;-67
2022/10/23 03:27:27;;;;;;;;;;;;;;;10.49;nan;100368.25;5081518;28;20032;-67
2022/10/23 03:29:52;;;;;;;3.67;2.30;;;;;;;10.46;nan;100361.41;5080493;28;19916;-67
2022/10/23 03:32:18;;;;;;;4.33;2.40;;;;;;;10.60;nan;100365.31;5078206;28;20509;-67
2022/10/23 03:34:43;;;;;;;;;;;;;;;10.51;nan;100366.25;5085287;28;20036;-67
2022/10/23 03:37:08;;;;;;;3.63;2.20;;;;;;;10.46;nan;100364.06;5079777;28;19920;-67
2022/10/23 03:39:33;;;;;;;3.45;1.98;;;;;;;10.44;nan;100365.22;5079864;28;20322;-67
2022/10/23 03:41:59;;;;;;;2.57;1.80;;;;;;;10.41;nan;100361.06;5076297;28;20311;-67
2022/10/23 03:44:24;;;;;;;3.20;1.90;;;;;;;10.51;nan;100359.16;5069653;28;20471;-67
2022/10/23 03:46:49;;;;;;;3.43;2.23;;;;;;;10.58;nan;100365.50;5081146;28;20772;-67
2022/10/23 03:49:14;;;;;;;4.80;2.50;;;;;;;10.61;nan;100369.63;5080720;28;20511;-67
2022/10/23 03:51:40;;;;;;;3.93;2.70;;;;;;;10.65;nan;100372.78;5079556;28;20941;-67
2022/10/23 03:54:09;;;;;;;5.40;2.50;;;;;;;10.68;nan;100377.75;5084225;28;20446;-69
2022/10/23 03:56:34;;;;;;;4.10;2.60;;;;;;;10.55;nan;100371.06;5078038;28;20044;-67
2022/10/23 03:58:59;;;;;;;3.90;2.30;;;;;;;10.50;nan;100367.25;5083445;28;20028;-67
2022/10/23 04:01:25;;;;;;;3.42;2.13;;;;;;;10.45;nan;100377.47;5090174;28;20036;-67
2022/10/23 04:03:50;;;;;;;5.85;2.40;;;;;;;10.44;nan;100376.63;5072651;28;20044;-67
2022/10/23 04:06:16;;;;;;;3.05;2.00;;;;;;;10.39;nan;100379.75;5064744;28;20036;-67
2022/10/23 04:08:43;;;;;;;3.55;2.40;;;;;;;10.36;nan;100376.56;5068893;28;20485;-67
2022/10/23 04:11:08;;;;;;;3.72;2.30;;;;;;;10.29;nan;100373.69;5084678;28;20505;-67
2022/10/23 04:13:34;;;;;;;3.10;1.90;;;;;;;10.26;nan;100373.97;5068827;28;20039;-67
2022/10/23 04:15:59;;;;;;;3.00;2.08;;;;;;;10.24;nan;100372.47;5084988;28;20553;-67
2022/10/23 04:18:24;;;;;;;3.92;2.20;;;;;;;10.20;nan;100383.38;5072660;28;20035;-67
2022/10/23 04:20:50;;;;;;;4.03;2.13;;;;;;;10.14;nan;100380.50;5081193;28;20040;-67
2022/10/23 04:23:16;;;;;;;3.63;2.40;;;;;;;10.09;nan;100388.06;5090451;28;20028;-67
2022/10/23 04:25:41;;;;;;;3.40;2.20;;;;;;;10.04;nan;100387.69;5079750;28;20047;-67
2022/10/23 04:28:06;;;;;;;3.13;2.10;;;;;;;9.98;nan;100382.00;5085915;28;20036;-67
2022/10/23 04:30:32;;;;;;;4.15;2.63;;;;;;;9.96;nan;100385.78;5079764;28;20044;-67
2022/10/23 04:32:57;;;;;;;4.10;2.58;;;;;;;9.94;nan;100385.13;5069497;28;20036;-67
2022/10/23 04:35:22;;;;;;;5.70;2.95;;;;;;;9.95;nan;100373.56;5085018;28;20036;-67
2022/10/23 04:37:47;;;;;;;4.35;2.67;;;;;;;9.95;nan;100371.75;5084328;28;20071;-67
2022/10/23 04:40:13;;;;;;;4.22;2.60;;;;;;;9.94;nan;100370.09;5081035;28;20032;-67
2022/10/23 04:42:38;;;;;;;5.22;2.50;;;;;;;9.91;nan;100374.84;5084084;28;20481;-67
2022/10/23 04:45:04;;;;;;;3.70;2.38;;;;;;;9.89;nan;100369.72;5079626;28;20046;-67
2022/10/23 04:47:30;;;;;;;4.50;2.13;;;;;;;9.85;nan;100365.72;5086806;28;20107;-67
2022/10/23 04:49:55;;;;;;;3.00;2.08;;;;;;;9.83;nan;100362.38;5084912;28;20412;-66
2022/10/23 04:52:20;;;;;;;5.20;2.63;;;;;;;9.80;nan;100365.34;5084815;28;20451;-67
2022/10/23 04:54:46;;;;;;;3.95;2.85;;;;;;;9.78;nan;100357.56;5083108;28;20062;-67
2022/10/23 04:57:12;;;;;;;5.13;2.70;;;;;;;9.78;nan;100354.91;5084961;28;20040;-66
2022/10/23 04:59:37;;;;;;;5.07;2.80;;;;;;;9.78;nan;100341.72;5088845;28;20044;-67
2022/10/23 05:02:02;;;;;;;5.15;2.65;;;;;;;9.81;nan;100353.78;5083551;28;20321;-66
2022/10/23 05:04:27;;;;;;;5.45;3.25;;;;;;;9.82;nan;100351.97;5084642;28;20039;-67
2022/10/23 05:06:53;;;;;;;5.63;3.28;;;;;;;9.86;nan;100353.34;5084610;28;20036;-67
2022/10/23 05:09:18;;;;;;;4.47;3.13;;;;;;;9.93;nan;100357.84;5081567;28;20491;-67
2022/10/23 05:11:43;;;;;;;6.13;3.20;;;;;;;10.00;nan;100361.53;5068693;28;20044;-67
2022/10/23 05:14:09;;;;;;;7.32;3.30;;;;;;;10.08;nan;100362.59;5085647;28;20074;-67
2022/10/23 05:16:49;;;;;;;10.50;3.75;;;;;;;10.14;nan;100359.34;5083747;28;20511;-67
2022/10/23 05:19:20;;;;;;;3.75;2.75;;;;;;;10.20;nan;100353.44;5078847;28;20037;-67
2022/10/23 05:21:48;;;;;;;6.05;2.97;;;;;;;10.19;nan;100354.44;5082359;28;20036;-67
2022/10/23 05:24:14;;;;;;;5.07;2.85;;;;;;;10.16;nan;100355.56;5086512;28;20025;-67
2022/10/23 05:26:39;;;;;;;4.03;2.70;;;;;;;10.12;nan;100354.22;5084775;28;20109;-67
2022/10/23 05:29:04;;;;;;;7.97;3.13;;;;;;;10.07;nan;100359.13;5080884;28;20039;-67
2022/10/23 05:31:31;;;;;;;;;;;;;;;10.03;nan;100367.50;5084217;28;20039;-67
2022/10/23 05:33:56;;;;;;;4.18;2.72;;;;;;;10.03;nan;100360.41;5079716;28;19924;-67
2022/10/23 05:36:24;;;;;;;4.05;2.13;;;;;;;10.00;nan;100340.41;5084655;28;20399;-67
2022/10/23 05:38:49;;;;;;;5.82;2.38;;;;;;;10.01;nan;100349.19;5080105;28;20065;-67
2022/10/23 05:41:15;;;;;;;3.83;2.40;;;;;;;10.02;nan;100347.38;5078862;28;20431;-67
2022/10/23 05:43:40;;;;;;;5.50;2.10;;;;;;;10.02;nan;100339.44;5082402;28;20514;-67
2022/10/23 05:46:06;;;;;;;4.75;2.38;;;;;;;10.00;nan;100345.69;5068590;28;20432;-71
2022/10/23 05:48:32;;;;;;;4.15;2.50;;;;;;;10.02;nan;100339.44;5085158;28;20109;-67
2022/10/23 05:51:05;;;;;;;;;;;;;;;10.02;nan;100342.91;5087420;28;20063;-67
2022/10/23 05:53:30;;;;;;;;;;;;;;;10.03;nan;100336.63;5081176;28;19916;-67
2022/10/23 05:55:55;;;;;;;;;;;;;;;10.04;nan;100319.81;5077572;28;19923;-67
2022/10/23 05:58:22;;;;;;;4.03;2.77;;;;;;;10.03;nan;100302.28;5067751;28;19924;-67
2022/10/23 06:00:47;;;;;;;4.43;2.75;;;;;;;10.05;nan;100310.91;5080915;28;20063;-67
2022/10/23 06:03:12;;;;;;;3.13;2.08;;;;;;;10.07;nan;100306.28;5083345;28;20056;-67
2022/10/23 06:05:38;;;;;;;4.53;2.07;;;;;;;10.06;nan;100302.00;5088974;28;20044;-67
2022/10/23 06:08:03;;;;;;;2.67;1.87;;;;;;;10.17;nan;100304.38;5080949;28;20426;-68
2022/10/23 06:10:30;;;;;;;;;;;;;;;10.07;nan;100297.53;5080843;28;20052;-67
2022/10/23 06:12:55;;;;;;;3.85;2.20;;;;;;;10.03;nan;100288.25;5066725;28;19923;-67
2022/10/23 06:15:21;;;;;;;3.60;2.35;;;;;;;10.02;nan;100295.38;5086262;28;20408;-67
2022/10/23 06:17:46;;;;;;;3.43;2.07;;;;;;;10.02;nan;100295.38;5067824;28;20047;-67
2022/10/23 06:20:11;;;;;;;4.47;2.70;;;;;;;10.03;nan;100296.19;5087180;28;20821;-68
2022/10/23 06:22:36;;;;;;;3.25;2.42;;;;;;;10.02;nan;100287.44;5093992;28;20627;-67
2022/10/23 06:25:02;;;;;;;4.57;2.85;;;;;;;10.03;nan;100285.63;5083922;28;20438;-67
2022/10/23 06:27:27;;;;;;;4.68;2.55;;;;;;;10.06;nan;100287.94;5085463;28;20032;-67
2022/10/23 06:29:52;;;;;;;6.88;3.20;;;;;;;10.07;nan;100294.91;5071753;28;20040;-67
2022/10/23 06:32:18;;;;;;;3.85;2.60;;;;;;;10.10;nan;100286.66;5082674;28;20028;-67
2022/10/23 06:34:43;;;;;;;6.07;3.20;;;;;;;10.11;nan;100281.22;5071883;28;20032;-67
2022/10/23 06:37:09;;;;;;;4.03;2.40;;;;;;;10.28;nan;100292.75;5078212;28;20411;-67
2022/10/23 06:39:35;;;;;;;4.03;2.50;;;;;;;10.41;nan;100295.81;5067592;28;20496;-67
2022/10/23 06:42:01;;;;;;;3.80;2.33;;;;;;;10.53;nan;100304.28;5082533;28;20837;-67
2022/10/23 06:44:26;;;;;;;3.03;2.28;;;;;;;10.49;nan;100299.50;5084380;28;20052;-67
2022/10/23 06:46:51;;;;;;;4.83;2.10;;;;;;;10.51;nan;100314.22;5085643;28;20078;-67
2022/10/23 06:49:16;;;;;;;3.67;2.08;;;;;;;10.58;nan;100309.13;5075775;28;20804;-67
2022/10/23 06:51:42;;;;;;;6.15;2.85;;;;;;;10.63;nan;100305.03;5085935;28;20040;-67
2022/10/23 06:54:09;;;;;;;3.10;2.10;;;;;;;10.67;nan;100308.19;5066925;28;20059;-68
2022/10/23 06:56:34;;;;;;;3.75;2.00;;;;;;;10.74;nan;100316.31;5078479;28;20042;-67
2022/10/23 06:59:00;;;;;;;3.42;2.15;;;;;;;10.78;nan;100307.09;5083300;28;20041;-67
2022/10/23 07:01:26;;;;;;;3.63;2.60;;;;;;;10.77;nan;100314.19;5078917;28;20036;-67
2022/10/23 07:03:51;;;;;;;3.85;2.40;;;;;;;10.78;nan;100307.91;5066627;28;20028;-67
2022/10/23 07:06:16;;;;;;;3.17;2.10;;;;;;;10.84;nan;100312.56;5085207;28;20116;-67
2022/10/23 07:08:42;;;;;;;3.40;2.20;;;;;;;10.87;nan;100316.72;5067562;28;20032;-67
2022/10/23 07:11:09;;;;;;;4.72;2.50;;;;;;;10.93;nan;100328.47;5076836;28;20040;-67
2022/10/23 07:13:35;;;;;;;4.57;2.90;;;;;;;10.95;nan;100323.84;5075784;28;20548;-67
2022/10/23 07:16:16;;;;;;;5.55;3.10;;;;;;;10.97;nan;100316.59;5064888;28;20040;-67
2022/10/23 07:18:42;;;;;;;5.07;3.07;;;;;;;11.04;nan;100320.25;5077423;28;20040;-67
2022/10/23 07:21:07;;;;;;;4.47;2.70;;;;;;;11.15;nan;100319.13;5078374;28;20395;-67
2022/10/23 07:23:32;;;;;;;4.63;3.08;;;;;;;11.30;nan;100325.47;5088964;28;20060;-67
2022/10/23 07:26:09;;;;;;;4.38;2.78;;;;;;;11.46;nan;100319.38;5080987;28;20048;-67
2022/10/23 07:28:35;;;;;;;5.72;3.85;;;;;;;11.54;nan;100305.34;5071596;28;20424;-67
2022/10/23 07:31:00;;;;;;;5.88;4.45;;;;;;;11.61;nan;100322.22;5082289;28;20231;-67
2022/10/23 07:33:25;;;;;;;7.68;5.72;;;;;;;11.69;nan;100319.56;5088952;28;20551;-67
2022/10/23 07:35:51;;;;;;;7.05;5.07;;;;;;;11.80;nan;100315.78;5088667;28;20132;-67
2022/10/23 07:38:16;;;;;;;7.97;4.65;;;;;;;11.93;nan;100321.44;5083788;28;20033;-67
2022/10/23 07:40:43;;;;;;;6.20;3.72;;;;;;;12.03;nan;100314.13;5081940;28;20472;-67
2022/10/23 07:43:08;;;;;;;4.93;3.80;;;;;;;12.17;nan;100312.63;5078467;28;20137;-67
2022/10/23 07:45:33;;;;;;;4.78;3.00;;;;;;;12.28;nan;100319.44;5069929;28;20079;-67
2022/10/23 07:47:58;;;;;;;4.10;3.35;;;;;;;12.31;nan;100321.75;5083578;28;20035;-67
2022/10/23 07:50:24;;;;;;;5.97;3.70;;;;;;;12.35;nan;100315.13;5088053;28;20122;-67
2022/10/23 07:52:49;;;;;;;5.05;3.90;;;;;;;12.39;nan;100327.03;5087316;28;20286;-67
2022/10/23 07:55:14;;;;;;;5.03;3.42;;;;;;;12.56;nan;100327.84;5071035;28;20029;-67
2022/10/23 07:57:39;;;;;;;4.33;3.23;;;;;;;12.91;nan;100329.19;5073905;28;20441;-67
2022/10/23 08:00:06;;;;;;;3.72;2.70;;;;;;;13.03;nan;100324.34;5083731;28;20040;-67
2022/10/23 08:02:31;;;;;;;4.53;3.10;;;;;;;13.15;nan;100322.13;5085273;28;20047;-67
2022/10/23 08:04:56;;;;;;;3.53;2.28;;;;;;;13.33;nan;100314.78;5091092;28;20438;-67
2022/10/23 08:07:22;;;;;;;4.90;2.55;;;;;;;13.52;nan;100313.50;5090485;28;20028;-67
2022/10/23 08:09:47;;;;;;;;;;;;;;;13.69;nan;100311.56;5088340;28;20104;-67
2022/10/23 08:12:12;;;;;;;3.60;2.20;;;;;;;13.91;nan;100307.22;5080392;28;20027;-67
2022/10/23 08:14:38;;;;;;;3.08;2.45;;;;;;;14.08;nan;100307.09;5080633;28;20032;-68
2022/10/23 08:17:03;;;;;;;3.38;2.42;;;;;;;14.22;nan;100307.09;5087121;28;20043;-67
2022/10/23 08:19:29;;;;;;;3.70;2.05;;;;;;;14.23;nan;100295.47;5090059;28;20042;-67
2022/10/23 08:21:56;;;;;;;3.40;2.90;;;;;;;14.16;nan;100281.25;5090077;28;20028;-67
2022/10/23 08:24:22;;;;;;;5.13;3.05;;;;;;;14.23;nan;100295.47;5090340;28;20042;-68
2022/10/23 08:26:48;;;;;;;5.10;2.40;;;;;;;14.45;nan;100298.25;5080916;28;20036;-67
2022/10/23 08:29:14;;;;;;;4.25;2.78;;;;;;;14.62;nan;100293.59;5088316;28;20032;-67
2022/10/23 08:31:39;;;;;;;5.70;3.42;;;;;;;14.80;nan;100285.22;5086250;28;20085;-67
2022/10/23 08:34:05;;;;;;;6.50;3.35;;;;;;;14.99;nan;100274.03;5087597;28;20859;-67
2022/10/23 08:36:30;;;;;;;3.58;2.72;;;;;;;15.21;nan;100277.53;5076909;28;20040;-67
2022/10/23 08:38:56;;;;;;;5.32;2.92;;;;;;;15.37;nan;100280.97;5078299;28;20046;-67
2022/10/23 08:41:27;;;;;;;5.00;2.58;;;;;;;15.49;nan;100272.31;5076133;28;20033;-67
2022/10/23 08:44:12;;;;;;;3.90;2.22;;;;;;;15.67;nan;100263.03;5079431;28;20066;-68
2022/10/23 08:46:43;;;;;;;3.72;2.47;;;;;;;15.76;nan;100264.59;5084887;28;20040;-67
2022/10/23 08:49:31;;;;;;;;;;;;;;;15.88;nan;100268.38;5084748;28;20082;-67
2022/10/23 08:52:01;;;;;;;4.22;2.97;;;;;;;16.08;nan;100265.03;5075934;28;19922;-68
2022/10/23 08:54:41;;;;;;;3.50;2.38;;;;;;;16.27;nan;100268.84;5085428;28;20040;-68
2022/10/23 08:57:13;;;;;;;5.22;3.42;;;;;;;16.32;nan;100269.91;5085301;28;20379;-68
2022/10/23 08:59:47;;;;;;;4.70;2.80;;;;;;;16.46;nan;100259.31;5073866;28;20400;-68
2022/10/23 09:02:20;;;;;;;4.65;2.80;;;;;;;16.70;nan;100256.16;5076237;28;20067;-69
2022/10/23 09:04:47;;;;;;;4.40;2.60;;;;;;;17.00;nan;100255.09;5071352;28;20062;-68
2022/10/23 09:07:31;;;;;;;4.25;2.75;;;;;;;17.18;nan;100247.31;5083714;28;20044;-68
2022/10/23 09:10:09;;;;;;;3.30;2.15;;;;;;;17.38;nan;100250.84;5066574;28;20054;-68
2022/10/23 09:12:35;;;;;;;4.68;2.58;;;;;;;17.55;nan;100253.16;5086189;28;20056;-68
2022/10/23 09:15:23;;;;;;;4.00;2.60;;;;;;;17.81;nan;100242.47;5086636;28;20044;-69
2022/10/23 09:17:54;;;;;;;;;;;;;;;18.04;nan;100249.25;5085307;28;20041;-68
2022/10/23 09:20:33;;;;;;;;;;;;;;;18.03;nan;100243.09;5080613;28;19916;-68
2022/10/23 09:23:20;;;;;;;4.50;3.08;;;;;;;17.92;nan;100249.03;5082523;28;19920;-68
2022/10/23 09:25:49;;;;;;;5.05;2.50;;;;;;;18.03;nan;100240.41;5086232;28;20059;-68
2022/10/23 09:28:19;;;;;;;3.20;2.28;;;;;;;18.19;nan;100249.03;5085154;28;20075;-68
2022/10/23 09:30:45;;;;;;;5.43;2.88;;;;;;;18.14;nan;100251.50;5085852;28;20281;-68
2022/10/23 09:33:20;;;;;;;4.55;2.50;;;;;;;18.32;nan;100243.66;5084125;28;20292;-68
2022/10/23 09:36:04;;;;;;;6.22;3.75;;;;;;;18.28;nan;100245.09;5082854;28;20489;-68
2022/10/23 09:38:34;;;;;;;7.60;3.38;;;;;;;18.27;nan;100242.63;5064397;28;20049;-68
2022/10/23 09:41:16;;;;;;;4.30;3.00;;;;;;;18.33;nan;100234.59;5074340;28;20148;-68
2022/10/23 09:43:42;;;;;;;6.25;2.90;;;;;;;18.44;nan;100241.97;5082429;28;20440;-68
2022/10/23 09:46:09;;;;;;;3.97;2.55;;;;;;;18.82;nan;100248.47;5080179;28;20681;-68
2022/10/23 09:48:34;;;;;;;5.57;3.80;;;;;;;18.62;nan;100249.34;5066786;28;20382;-68
2022/10/23 09:51:03;;;;;;;4.78;3.20;;;;;;;18.86;nan;100250.50;5063334;28;20032;-68
2022/10/23 09:53:33;;;;;;;6.75;3.50;;;;;;;19.02;nan;100256.41;5084753;28;20521;-68
2022/10/23 09:56:06;;;;;;;5.28;3.28;;;;;;;19.18;nan;100258.59;5081115;28;20044;-68
2022/10/23 09:58:38;;;;;;;4.30;2.70;;;;;;;19.22;nan;100259.00;5074235;28;20497;-68
2022/10/23 10:01:04;;;;;;;;;;;;;;;19.14;nan;100257.41;5078369;28;20108;-68
2022/10/23 10:03:29;;;;;;;5.03;2.92;;;;;;;19.16;nan;100260.66;5080258;28;20026;-68
2022/10/23 10:05:57;;;;;;;3.50;2.60;;;;;;;19.33;nan;100255.63;5088295;28;20531;-68
2022/10/23 10:08:39;;;;;;;4.05;2.85;;;;;;;19.47;nan;100256.34;5077795;28;20268;-67
2022/10/23 10:11:23;;;;;;;5.82;4.15;;;;;;;19.56;nan;100246.19;5078920;28;20121;-68
2022/10/23 10:14:04;;;;;;;5.07;3.78;;;;;;;19.74;nan;100235.56;5083651;28;20032;-68
2022/10/23 10:16:59;;;;;;;8.20;4.00;;;;;;;20.02;nan;100223.53;5076155;28;20489;-68
2022/10/23 10:19:49;;;;;;;5.10;3.50;;;;;;;20.02;nan;100216.31;5037416;28;20283;-68
2022/10/23 10:22:30;;;;;;;6.00;3.08;;;;;;;19.94;nan;100220.09;5081718;28;20497;-68
2022/10/23 10:25:08;;;;;;;4.97;3.03;;;;;;;19.96;nan;100211.00;5085094;28;20044;-68
2022/10/23 10:28:11;;;;;;;5.00;3.28;;;;;;;19.92;nan;100210.63;5080664;28;20036;-68
2022/10/23 10:31:02;;;;;;;5.88;3.20;;;;;;;19.90;nan;100218.91;5079425;28;20415;-68
2022/10/23 10:33:37;;;;;;;5.50;3.38;;;;;;;19.94;nan;100216.59;5075674;28;20501;-68
2022/10/23 10:36:34;;;;;;;3.88;3.05;;;;;;;19.91;nan;100217.03;5065831;28;20064;-69
2022/10/23 10:39:02;;;;;;;4.90;3.22;;;;;;;19.92;nan;100213.28;5078906;28;20032;-67
2022/10/23 10:42:01;;;;;;;5.10;3.60;;;;;;;19.89;nan;100211.06;5068664;28;20035;-68
2022/10/23 10:44:45;;;;;;;5.93;3.40;;;;;;;19.66;nan;100195.53;5062202;28;20237;-68
2022/10/23 10:47:17;;;;;;;5.63;4.20;;;;;;;19.55;nan;100199.78;5081824;28;20045;-67
2022/10/23 10:50:06;;;;;;;6.38;3.60;;;;;;;19.79;nan;100184.75;5081700;28;20515;-67
2022/10/23 10:52:52;;;;;;;5.15;3.55;;;;;;;20.13;nan;100185.22;5078068;28;20436;-67
2022/10/23 10:55:32;;;;;;;6.40;3.95;;;;;;;20.18;nan;100176.50;5047884;28;20122;-67
2022/10/23 10:58:19;;;;;;;5.78;3.60;;;;;;;20.32;nan;100173.44;5081710;28;20512;-67
2022/10/23 11:00:48;;;;;;;5.82;3.55;;;;;;;20.38;nan;100171.72;5081877;28;20056;-67
2022/10/23 11:03:52;;;;;;;5.55;2.88;;;;;;;20.52;nan;100173.22;5063851;28;20039;-67
2022/10/23 11:06:23;;;;;;;4.45;3.20;;;;;;;20.95;nan;100164.19;5049656;28;20532;-68
2022/10/23 11:08:49;;;;;;;5.88;2.80;;;;;;;21.18;nan;100170.66;5077558;28;20087;-68
2022/10/23 11:11:25;;;;;;;6.18;3.70;;;;;;;20.86;nan;100170.94;5083385;28;20534;-68
2022/10/23 11:13:52;;;;;;;5.70;3.80;;;;;;;20.70;nan;100182.31;5081257;28;20043;-68
2022/10/23 11:16:24;;;;;;;5.78;3.20;;;;;;;20.61;nan;100186.34;5065759;28;20073;-67
2022/10/23 11:18:55;;;;;;;4.55;3.28;;;;;;;20.54;nan;100192.59;5078862;28;20051;-67
2022/10/23 11:21:37;;;;;;;5.82;3.15;;;;;;;20.56;nan;100217.38;5069350;28;20110;-67
2022/10/23 11:24:27;;;;;;;5.10;3.20;;;;;;;20.68;nan;100204.03;5082200;28;20524;-69
2022/10/23 11:27:21;;;;;;;5.57;2.97;;;;;;;20.69;nan;100186.03;5080476;28;20521;-67
2022/10/23 11:30:12;;;;;;;6.05;3.97;;;;;;;20.73;nan;100165.72;5081023;28;20498;-67
2022/10/23 11:32:37;;;;;;;;;;;;;;;20.49;nan;100152.16;5077842;28;20092;-67
2022/10/23 11:35:31;;;;;;;4.67;3.27;;;;;;;20.53;nan;100139.91;5080065;28;19952;-67
2022/10/23 11:38:07;;;;;;;4.43;3.25;;;;;;;20.64;nan;100138.38;5084050;28;20043;-67
2022/10/23 11:40:33;;;;;;;4.35;2.67;;;;;;;20.77;nan;100137.38;5060316;28;20048;-67
2022/10/23 11:42:58;;;;;;;5.28;3.15;;;;;;;20.88;nan;100141.13;5063841;28;20187;-67
2022/10/23 11:45:30;;;;;;;4.82;3.05;;;;;;;20.90;nan;100139.84;5086323;28;20067;-67
2022/10/23 11:48:21;;;;;;;4.13;2.72;;;;;;;21.13;nan;100132.91;5076537;28;20032;-67
2022/10/23 11:50:46;;;;;;;4.95;2.90;;;;;;;21.02;nan;100125.63;5082683;28;20036;-67
2022/10/23 11:53:31;;;;;;;5.43;2.67;;;;;;;21.05;nan;100125.19;5082427;28;20036;-67
2022/10/23 11:56:11;;;;;;;3.75;2.40;;;;;;;21.12;nan;100124.03;5082532;28;20040;-67
2022/10/23 11:58:42;;;;;;;3.72;2.45;;;;;;;21.18;nan;100133.03;5074465;28;20489;-68
2022/10/23 12:01:27;;;;;;;4.22;2.38;;;;;;;21.33;nan;100108.38;5085151;28;20439;-68
2022/10/23 12:04:17;;;;;;;4.38;2.20;;;;;;;21.37;nan;100109.53;5082707;28;20337;-67